Time;durP1;ratioP1;P1;durP2;ratioP2;P2;SDS_P1;SDS_P2;PMS_P1;PMS_P2;Temp;Humidity;BMP_temperature;BMP_pressure;BME280_temperature;BME280_humidity;BME280_pressure;Samples;Min_cycle;Max_cycle;Signal;HPM_P1;HPM_P2
2022/04/05 00:01:15;;;;;;;12.38;2.95;;;;;;;;;;5025545;28;20026;-60
2022/04/05 00:03:41;;;;;;;8.95;1.60;;;;;;;;;;5029794;28;20489;-61
2022/04/05 00:06:07;;;;;;;11.60;2.45;;;;;;;;;;5023946;28;20027;-60
2022/04/05 00:08:33;;;;;;;8.57;2.90;;;;;;;;;;5022415;28;20387;-60
2022/04/05 00:10:58;;;;;;;13.57;2.88;;;;;;;;;;5022310;28;20026;-60
2022/04/05 00:13:24;;;;;;;7.95;2.00;;;;;;;;;;5023799;28;20687;-61
2022/04/05 00:15:49;;;;;;;9.25;1.50;;;;;;;;;;5024419;28;20040;-61
2022/04/05 00:18:15;;;;;;;7.22;2.55;;;;;;;;;;5022806;28;20043;-61
2022/04/05 00:20:41;;;;;;;10.43;2.17;;;;;;;;;;5026604;28;20025;-60
2022/04/05 00:23:06;;;;;;;7.72;2.10;;;;;;;;;;5021596;28;20025;-61
2022/04/05 00:25:33;;;;;;;6.97;2.15;;;;;;;;;;5023114;28;20033;-61
2022/04/05 00:27:59;;;;;;;11.90;2.28;;;;;;;;;;5021982;28;20501;-61
2022/04/05 00:30:25;;;;;;;7.00;2.17;;;;;;;;;;5022596;28;20022;-61
2022/04/05 00:32:50;;;;;;;10.18;1.90;;;;;;;;;;5021883;28;20013;-61
2022/04/05 00:35:16;;;;;;;6.88;2.13;;;;;;;;;;5023565;28;20382;-61
2022/04/05 00:37:42;;;;;;;12.25;2.83;;;;;;;;;;5022078;28;20115;-61
2022/04/05 00:40:08;;;;;;;10.95;2.95;;;;;;;;;;5022027;28;20364;-61
2022/04/05 00:42:34;;;;;;;7.55;1.48;;;;;;;;;;5023362;28;20032;-61
2022/04/05 00:45:00;;;;;;;14.45;2.25;;;;;;;;;;5021658;28;20018;-61
2022/04/05 00:47:26;;;;;;;6.50;2.10;;;;;;;;;;5022318;28;20387;-61
2022/04/05 00:49:53;;;;;;;10.20;1.92;;;;;;;;;;5023238;28;20097;-61
2022/04/05 00:52:21;;;;;;;5.30;2.00;;;;;;;;;;5023330;28;20029;-61
2022/04/05 00:54:49;;;;;;;7.53;1.95;;;;;;;;;;5022310;28;20076;-61
2022/04/05 00:57:24;;;;;;;9.00;2.25;;;;;;;;;;5018560;28;20041;-61
2022/04/05 00:59:55;;;;;;;8.63;2.67;;;;;;;;;;5012875;28;20040;-61
2022/04/05 01:02:21;;;;;;;9.20;2.33;;;;;;;;;;5012875;28;20055;-61
2022/04/05 01:04:47;;;;;;;8.35;2.42;;;;;;;;;;5012839;28;20038;-61
2022/04/05 01:07:15;;;;;;;6.43;1.60;;;;;;;;;;5012802;28;20096;-61
2022/04/05 01:09:41;;;;;;;4.70;1.30;;;;;;;;;;5012522;28;20026;-61
2022/04/05 01:12:09;;;;;;;10.45;2.00;;;;;;;;;;5012815;28;20376;-61
2022/04/05 01:14:35;;;;;;;8.52;1.67;;;;;;;;;;5012725;28;20179;-61
2022/04/05 01:17:03;;;;;;;5.80;1.70;;;;;;;;;;5011432;28;20040;-61
2022/04/05 01:19:29;;;;;;;6.97;1.65;;;;;;;;;;5021786;28;20037;-61
2022/04/05 01:21:55;;;;;;;10.18;2.63;;;;;;;;;;5032454;28;20078;-61
2022/04/05 01:24:21;;;;;;;9.35;1.70;;;;;;;;;;5036161;28;20445;-61
2022/04/05 01:26:51;;;;;;;4.65;1.73;;;;;;;;;;5036323;28;20059;-61
2022/04/05 01:29:17;;;;;;;;;;;;;;;;;;5036873;28;20022;-61
2022/04/05 01:31:46;;;;;;;7.95;1.60;;;;;;;;;;5036323;28;19917;-61
2022/04/05 01:34:13;;;;;;;8.85;1.90;;;;;;;;;;5036314;28;20057;-61
2022/04/05 01:36:55;;;;;;;12.57;1.63;;;;;;;;;;5035900;28;20033;-61
2022/04/05 01:39:29;;;;;;;8.15;1.75;;;;;;;;;;5036291;28;20108;-61
2022/04/05 01:42:16;;;;;;;8.82;1.60;;;;;;;;;;5036096;28;20039;-61
2022/04/05 01:44:43;;;;;;;6.47;1.50;;;;;;;;;;5036056;28;20022;-61
2022/04/05 01:47:16;;;;;;;10.75;1.83;;;;;;;;;;5035929;28;20083;-61
2022/04/05 01:49:45;;;;;;;7.60;1.67;;;;;;;;;;5036013;28;20072;-61
2022/04/05 01:52:11;;;;;;;5.97;2.03;;;;;;;;;;5035684;28;20029;-61
2022/04/05 01:54:40;;;;;;;14.18;1.98;;;;;;;;;;5035931;28;20025;-61
2022/04/05 01:57:06;;;;;;;8.48;1.90;;;;;;;;;;5035881;28;20025;-61
2022/04/05 01:59:34;;;;;;;7.65;1.98;;;;;;;;;;5035725;28;20026;-61
2022/04/05 02:02:07;;;;;;;10.38;2.08;;;;;;;;;;5035672;28;20378;-61
2022/04/05 02:04:33;;;;;;;8.23;1.60;;;;;;;;;;5035647;28;20566;-61
2022/04/05 02:06:59;;;;;;;3.97;1.30;;;;;;;;;;5035300;28;20077;-61
2022/04/05 02:09:25;;;;;;;8.60;1.92;;;;;;;;;;5035569;28;20026;-61
2022/04/05 02:11:53;;;;;;;4.75;1.70;;;;;;;;;;5035493;28;20550;-61
2022/04/05 02:14:18;;;;;;;14.50;2.65;;;;;;;;;;5035355;28;20045;-61
2022/04/05 02:16:44;;;;;;;10.90;2.47;;;;;;;;;;5035517;28;20105;-61
2022/04/05 02:19:10;;;;;;;5.50;1.40;;;;;;;;;;5035006;28;20092;-61
2022/04/05 02:21:36;;;;;;;7.95;1.65;;;;;;;;;;5034907;28;20148;-61
2022/04/05 02:24:01;;;;;;;8.57;2.28;;;;;;;;;;5035325;28;20022;-61
2022/04/05 02:26:27;;;;;;;12.75;2.17;;;;;;;;;;5035228;28;20135;-61
2022/04/05 02:28:52;;;;;;;15.55;3.72;;;;;;;;;;5035336;28;20021;-61
2022/04/05 02:31:18;;;;;;;5.65;1.40;;;;;;;;;;5035167;28;20028;-61
2022/04/05 02:33:44;;;;;;;8.40;1.60;;;;;;;;;;5033919;28;20037;-60
2022/04/05 02:36:09;;;;;;;7.65;1.33;;;;;;;;;;5034717;28;20080;-61
2022/04/05 02:38:36;;;;;;;12.80;1.90;;;;;;;;;;5035104;28;20108;-60
2022/04/05 02:41:05;;;;;;;8.50;1.83;;;;;;;;;;5034977;28;20022;-60
2022/04/05 02:43:31;;;;;;;8.30;1.60;;;;;;;;;;5034958;28;20041;-60
2022/04/05 02:45:57;;;;;;;13.52;1.80;;;;;;;;;;5034887;28;20057;-60
2022/04/05 02:48:23;;;;;;;6.75;1.27;;;;;;;;;;5034846;28;20065;-60
2022/04/05 02:50:49;;;;;;;8.65;1.70;;;;;;;;;;5034552;28;20044;-60
2022/04/05 02:53:14;;;;;;;11.98;2.20;;;;;;;;;;5034768;28;20084;-60
2022/04/05 02:55:40;;;;;;;9.98;2.08;;;;;;;;;;5034762;28;20109;-60
2022/04/05 02:58:05;;;;;;;7.60;1.77;;;;;;;;;;5034787;28;20452;-60
2022/04/05 03:00:32;;;;;;;14.15;2.25;;;;;;;;;;5034644;28;20560;-60
2022/04/05 03:02:57;;;;;;;35.47;13.98;;;;;;;;;;5034495;28;20026;-60
2022/04/05 03:05:24;;;;;;;19.77;7.50;;;;;;;;;;5034321;28;20087;-60
2022/04/05 03:07:49;;;;;;;6.60;2.30;;;;;;;;;;5034598;28;20033;-61
2022/04/05 03:10:15;;;;;;;12.55;2.53;;;;;;;;;;5034492;28;20375;-60
2022/04/05 03:12:40;;;;;;;11.25;1.92;;;;;;;;;;5034442;28;20049;-60
2022/04/05 03:15:08;;;;;;;10.25;1.45;;;;;;;;;;5034442;28;20142;-60
2022/04/05 03:17:34;;;;;;;14.23;2.17;;;;;;;;;;5034187;28;20077;-60
2022/04/05 03:20:00;;;;;;;9.40;1.52;;;;;;;;;;5033734;28;20056;-61
2022/04/05 03:22:26;;;;;;;9.38;1.73;;;;;;;;;;5034009;28;20483;-61
2022/04/05 03:24:51;;;;;;;7.93;2.78;;;;;;;;;;5034159;28;20068;-60
2022/04/05 03:27:17;;;;;;;14.73;1.58;;;;;;;;;;5034201;28;20489;-60
2022/04/05 03:29:42;;;;;;;6.78;1.50;;;;;;;;;;5034140;28;20083;-60
2022/04/05 03:32:11;;;;;;;14.18;2.08;;;;;;;;;;5033992;28;20024;-60
2022/04/05 03:34:37;;;;;;;10.45;1.60;;;;;;;;;;5033826;28;20168;-60
2022/04/05 03:37:02;;;;;;;9.88;1.38;;;;;;;;;;5033816;28;20068;-61
2022/04/05 03:39:28;;;;;;;13.73;3.55;;;;;;;;;;5033893;28;20026;-60
2022/04/05 03:41:53;;;;;;;15.40;5.50;;;;;;;;;;5033645;28;20466;-60
2022/04/05 03:44:19;;;;;;;8.38;1.83;;;;;;;;;;5033828;28;20029;-60
2022/04/05 03:46:44;;;;;;;9.90;2.05;;;;;;;;;;5033299;28;20056;-60
2022/04/05 03:49:10;;;;;;;9.45;2.13;;;;;;;;;;5033490;28;20327;-60
2022/04/05 03:51:35;;;;;;;9.32;1.85;;;;;;;;;;5033546;28;20026;-61
2022/04/05 03:54:01;;;;;;;9.52;1.48;;;;;;;;;;5033547;28;20087;-60
2022/04/05 03:56:26;;;;;;;9.68;1.75;;;;;;;;;;5033346;28;20111;-61
2022/04/05 03:58:52;;;;;;;11.02;2.85;;;;;;;;;;5033499;28;20475;-60
2022/04/05 04:01:18;;;;;;;13.18;4.18;;;;;;;;;;5033362;28;20022;-60
2022/04/05 04:03:43;;;;;;;15.45;2.22;;;;;;;;;;5033123;28;20029;-60
2022/04/05 04:06:09;;;;;;;11.02;1.98;;;;;;;;;;5033404;28;20509;-60
2022/04/05 04:08:35;;;;;;;10.18;1.55;;;;;;;;;;5033327;28;20044;-60
2022/04/05 04:11:01;;;;;;;6.00;1.33;;;;;;;;;;5033315;28;20387;-60
2022/04/05 04:13:27;;;;;;;7.03;1.30;;;;;;;;;;5033256;28;20487;-60
2022/04/05 04:15:52;;;;;;;9.20;2.03;;;;;;;;;;5033127;28;20119;-60
2022/04/05 04:18:18;;;;;;;7.40;1.40;;;;;;;;;;5032759;28;20112;-60
2022/04/05 04:20:43;;;;;;;9.63;1.33;;;;;;;;;;5032598;28;20033;-60
2022/04/05 04:23:10;;;;;;;5.30;1.33;;;;;;;;;;5033104;28;20459;-60
2022/04/05 04:25:37;;;;;;;6.57;1.85;;;;;;;;;;5032839;28;20471;-60
2022/04/05 04:28:10;;;;;;;7.28;1.75;;;;;;;;;;5032987;28;20105;-60
2022/04/05 04:30:37;;;;;;;4.20;1.50;;;;;;;;;;5032968;28;20029;-60
2022/04/05 04:33:04;;;;;;;10.63;1.88;;;;;;;;;;5033012;28;20036;-60
2022/04/05 04:35:31;;;;;;;9.63;1.92;;;;;;;;;;5032830;28;20032;-60
2022/04/05 04:37:57;;;;;;;5.65;1.80;;;;;;;;;;5032937;28;20033;-60
2022/04/05 04:40:23;;;;;;;11.68;1.85;;;;;;;;;;5032563;28;20022;-60
2022/04/05 04:42:49;;;;;;;7.53;2.08;;;;;;;;;;5032583;28;20128;-60
2022/04/05 04:45:14;;;;;;;12.85;2.08;;;;;;;;;;5032571;28;20108;-60
2022/04/05 04:47:40;;;;;;;8.82;2.40;;;;;;;;;;5032724;28;20033;-60
2022/04/05 04:50:07;;;;;;;15.57;3.47;;;;;;;;;;5032789;28;20029;-60
2022/04/05 04:52:33;;;;;;;14.05;3.60;;;;;;;;;;5032726;28;20025;-61
2022/04/05 04:54:59;;;;;;;11.70;3.35;;;;;;;;;;5032704;28;20301;-60
2022/04/05 04:57:25;;;;;;;15.32;3.15;;;;;;;;;;5031801;28;20029;-60
2022/04/05 04:59:52;;;;;;;40.65;14.05;;;;;;;;;;5032319;28;20097;-60
2022/04/05 05:02:18;;;;;;;48.13;21.90;;;;;;;;;;5032343;28;20382;-60
2022/04/05 05:04:44;;;;;;;13.40;4.50;;;;;;;;;;5032661;28;20514;-60
2022/04/05 05:07:09;;;;;;;6.72;2.63;;;;;;;;;;5032509;28;20056;-60
2022/04/05 05:09:35;;;;;;;9.77;2.85;;;;;;;;;;5032482;28;20050;-60
2022/04/05 05:12:01;;;;;;;11.15;1.98;;;;;;;;;;5032493;28;20112;-60
2022/04/05 05:14:27;;;;;;;11.48;2.83;;;;;;;;;;5032165;28;20030;-60
2022/04/05 05:16:53;;;;;;;15.07;3.30;;;;;;;;;;5032402;28;20502;-60
2022/04/05 05:19:20;;;;;;;11.00;2.60;;;;;;;;;;5032051;28;20475;-60
2022/04/05 05:21:45;;;;;;;9.40;3.92;;;;;;;;;;5032150;28;20128;-60
2022/04/05 05:24:11;;;;;;;12.70;3.17;;;;;;;;;;5032251;28;20112;-60
2022/04/05 05:26:36;;;;;;;13.18;2.30;;;;;;;;;;5032166;28;20450;-60
2022/04/05 05:29:02;;;;;;;16.60;4.78;;;;;;;;;;5032031;28;20030;-60
2022/04/05 05:31:27;;;;;;;10.63;4.28;;;;;;;;;;5032368;28;20360;-60
2022/04/05 05:33:53;;;;;;;13.85;3.70;;;;;;;;;;5032253;28;20026;-60
2022/04/05 05:36:19;;;;;;;17.40;7.10;;;;;;;;;;5032121;28;20033;-60
2022/04/05 05:38:44;;;;;;;15.68;6.43;;;;;;;;;;5032257;28;20386;-60
2022/04/05 05:41:10;;;;;;;21.42;5.57;;;;;;;;;;5032033;28;20586;-60
2022/04/05 05:43:36;;;;;;;12.00;3.58;;;;;;;;;;5031852;28;20036;-60
2022/04/05 05:46:03;;;;;;;19.42;4.28;;;;;;;;;;5031949;28;20039;-60
2022/04/05 05:48:30;;;;;;;11.35;2.22;;;;;;;;;;5030730;28;20390;-60
2022/04/05 05:50:56;;;;;;;15.75;2.88;;;;;;;;;;5031988;28;20026;-60
2022/04/05 05:53:22;;;;;;;8.90;4.25;;;;;;;;;;5032038;28;20029;-60
2022/04/05 05:55:48;;;;;;;16.33;4.22;;;;;;;;;;5031870;28;20126;-61
2022/04/05 05:58:13;;;;;;;18.52;5.28;;;;;;;;;;5031653;28;20040;-60
2022/04/05 06:00:39;;;;;;;14.35;2.90;;;;;;;;;;5032096;28;20037;-61
2022/04/05 06:03:05;;;;;;;10.40;2.25;;;;;;;;;;5031799;28;20064;-60
2022/04/05 06:05:31;;;;;;;11.85;2.92;;;;;;;;;;5031743;28;20491;-61
2022/04/05 06:07:57;;;;;;;13.38;2.65;;;;;;;;;;5032018;28;20033;-60
2022/04/05 06:10:23;;;;;;;9.32;2.50;;;;;;;;;;5035446;28;20379;-60
2022/04/05 06:12:50;;;;;;;7.68;2.70;;;;;;;;;;5035137;28;20032;-60
2022/04/05 06:15:17;;;;;;;8.15;2.75;;;;;;;;;;5035272;28;20029;-61
2022/04/05 06:17:46;;;;;;;7.10;1.90;;;;;;;;;;5035115;28;20028;-60
2022/04/05 06:20:13;;;;;;;9.02;2.50;;;;;;;;;;5034891;28;20088;-60
2022/04/05 06:22:47;;;;;;;4.53;1.65;;;;;;;;;;5035031;28;20026;-60
2022/04/05 06:25:18;;;;;;;12.15;3.63;;;;;;;;;;5035251;28;20482;-60
2022/04/05 06:27:44;;;;;;;9.38;2.40;;;;;;;;;;5035183;28;20347;-60
2022/04/05 06:30:11;;;;;;;35.03;3.00;;;;;;;;;;5035119;28;20029;-60
2022/04/05 06:32:37;;;;;;;12.23;2.47;;;;;;;;;;5035165;28;20061;-59
2022/04/05 06:35:04;;;;;;;8.75;1.80;;;;;;;;;;5034963;28;20502;-60
2022/04/05 06:37:30;;;;;;;17.23;2.28;;;;;;;;;;5034969;28;20017;-61
2022/04/05 06:39:55;;;;;;;13.00;2.28;;;;;;;;;;5035112;28;20079;-60
2022/04/05 06:42:21;;;;;;;6.90;2.30;;;;;;;;;;5034681;28;20065;-61
2022/04/05 06:44:47;;;;;;;11.35;2.15;;;;;;;;;;5034839;28;20029;-60
2022/04/05 06:47:12;;;;;;;6.28;2.55;;;;;;;;;;5034794;28;20394;-60
2022/04/05 06:49:38;;;;;;;12.73;2.90;;;;;;;;;;5034732;28;20485;-60
2022/04/05 06:52:04;;;;;;;17.98;3.67;;;;;;;;;;5034780;28;20044;-60
2022/04/05 06:54:30;;;;;;;13.30;2.80;;;;;;;;;;5034750;28;20049;-60
2022/04/05 06:56:55;;;;;;;12.57;2.22;;;;;;;;;;5034461;28;20018;-61
2022/04/05 06:59:21;;;;;;;8.93;2.05;;;;;;;;;;5034425;28;20039;-60
2022/04/05 07:01:46;;;;;;;11.35;2.50;;;;;;;;;;5034437;28;20474;-60
2022/04/05 07:04:12;;;;;;;9.55;2.67;;;;;;;;;;5034468;28;20026;-61
2022/04/05 07:06:38;;;;;;;6.53;2.20;;;;;;;;;;5034422;28;20441;-60
2022/04/05 07:09:05;;;;;;;4.43;1.52;;;;;;;;;;5033041;28;20025;-60
2022/04/05 07:11:31;;;;;;;8.75;2.03;;;;;;;;;;5034176;28;20439;-59
2022/04/05 07:13:57;;;;;;;15.02;3.60;;;;;;;;;;5034381;28;20041;-60
2022/04/05 07:16:22;;;;;;;8.05;2.25;;;;;;;;;;5034146;28;20041;-60
2022/04/05 07:18:49;;;;;;;8.32;2.25;;;;;;;;;;5033631;28;20099;-60
2022/04/05 07:21:15;;;;;;;16.02;3.53;;;;;;;;;;5033091;28;20064;-60
2022/04/05 07:23:41;;;;;;;10.18;2.38;;;;;;;;;;5033847;28;20040;-60
2022/04/05 07:26:07;;;;;;;11.00;2.60;;;;;;;;;;5033690;28;20021;-61
2022/04/05 07:28:33;;;;;;;14.38;2.38;;;;;;;;;;5034111;28;20022;-61
2022/04/05 07:30:58;;;;;;;14.85;2.78;;;;;;;;;;5033954;28;20083;-61
2022/04/05 07:33:24;;;;;;;5.35;2.08;;;;;;;;;;5034106;28;20041;-61
2022/04/05 07:35:50;;;;;;;16.85;3.80;;;;;;;;;;5033811;28;20046;-61
2022/04/05 07:38:17;;;;;;;10.25;2.38;;;;;;;;;;5033943;28;20029;-61
2022/04/05 07:40:48;;;;;;;14.70;2.40;;;;;;;;;;5033714;28;20029;-61
2022/04/05 07:43:16;;;;;;;10.57;2.33;;;;;;;;;;5033855;28;20065;-61
2022/04/05 07:45:42;;;;;;;7.28;1.80;;;;;;;;;;5033662;28;20387;-61
2022/04/05 07:48:08;;;;;;;8.55;2.10;;;;;;;;;;5033375;28;20029;-61
2022/04/05 07:50:33;;;;;;;8.10;2.20;;;;;;;;;;5033704;28;20021;-60
2022/04/05 07:52:59;;;;;;;3.50;1.45;;;;;;;;;;5033631;28;20021;-61
2022/04/05 07:55:24;;;;;;;12.73;2.72;;;;;;;;;;5033377;28;20072;-63
2022/04/05 07:57:50;;;;;;;9.68;2.30;;;;;;;;;;5033370;28;20083;-61
2022/04/05 08:00:16;;;;;;;10.75;1.88;;;;;;;;;;5033148;28;20102;-61
2022/04/05 08:02:41;;;;;;;4.50;1.70;;;;;;;;;;5033321;28;20040;-60
2022/04/05 08:05:07;;;;;;;8.02;2.33;;;;;;;;;;5033166;28;20120;-60
2022/04/05 08:07:33;;;;;;;9.98;2.45;;;;;;;;;;5033107;28;20152;-61
2022/04/05 08:09:58;;;;;;;10.38;1.98;;;;;;;;;;5032727;28;20543;-61
2022/04/05 08:12:24;;;;;;;13.05;3.97;;;;;;;;;;5033253;28;20414;-59
2022/04/05 08:14:50;;;;;;;9.50;3.17;;;;;;;;;;5033199;28;20025;-61
2022/04/05 08:17:15;;;;;;;10.70;3.70;;;;;;;;;;5033289;28;20048;-61
2022/04/05 08:19:41;;;;;;;12.73;3.22;;;;;;;;;;5032670;28;20469;-60
2022/04/05 08:22:08;;;;;;;25.98;7.20;;;;;;;;;;5032976;28;20531;-60
2022/04/05 08:24:35;;;;;;;27.80;9.88;;;;;;;;;;5023653;28;20034;-59
2022/04/05 08:27:00;;;;;;;15.05;3.97;;;;;;;;;;5032049;28;20026;-60
2022/04/05 08:29:26;;;;;;;11.00;3.60;;;;;;;;;;5019984;28;20442;-60
2022/04/05 08:31:52;;;;;;;11.35;2.97;;;;;;;;;;5023239;28;20022;-60
2022/04/05 08:34:18;;;;;;;14.38;4.60;;;;;;;;;;5022205;28;20387;-61
2022/04/05 08:36:44;;;;;;;22.70;5.10;;;;;;;;;;5031980;28;20430;-59
2022/04/05 08:39:10;;;;;;;13.63;3.85;;;;;;;;;;5031739;28;20109;-61
2022/04/05 08:41:38;;;;;;;14.57;3.72;;;;;;;;;;5032062;28;20096;-60
2022/04/05 08:44:04;;;;;;;17.00;4.38;;;;;;;;;;5031998;28;20029;-60
2022/04/05 08:46:34;;;;;;;10.10;2.67;;;;;;;;;;5031871;28;20083;-60
2022/04/05 08:49:01;;;;;;;11.10;3.67;;;;;;;;;;5031972;28;20363;-60
2022/04/05 08:51:26;;;;;;;5.80;2.22;;;;;;;;;;5031981;28;20052;-60
2022/04/05 08:53:52;;;;;;;7.88;2.45;;;;;;;;;;5031587;28;20501;-60
2022/04/05 08:56:18;;;;;;;8.25;2.25;;;;;;;;;;5025984;28;20114;-61
2022/04/05 08:58:43;;;;;;;10.07;2.88;;;;;;;;;;5026694;28;20025;-60
2022/04/05 09:01:09;;;;;;;10.43;2.10;;;;;;;;;;5025501;28;20057;-59
2022/04/05 09:03:35;;;;;;;9.90;2.70;;;;;;;;;;5021812;28;20054;-59
2022/04/05 09:06:28;;;;;;;5.57;1.27;;;;;;;;;;5021088;28;20071;-60
2022/04/05 09:09:11;;;;;;;6.32;1.92;;;;;;;;;;5020100;28;20061;-59
2022/04/05 09:11:45;;;;;;;8.02;1.77;;;;;;;;;;5030168;28;20029;-59
2022/04/05 09:14:11;;;;;;;9.32;2.80;;;;;;;;;;5032164;28;20072;-60
2022/04/05 09:16:37;;;;;;;6.15;1.98;;;;;;;;;;5031138;28;20064;-60
2022/04/05 09:19:13;;;;;;;8.90;2.20;;;;;;;;;;5024590;28;20042;-60
2022/04/05 09:22:09;;;;;;;8.45;1.88;;;;;;;;;;5022757;28;20040;-60
2022/04/05 09:24:37;;;;;;;6.15;1.92;;;;;;;;;;5020890;28;20030;-59
2022/04/05 09:27:03;;;;;;;9.45;2.38;;;;;;;;;;5021940;28;20049;-59
2022/04/05 09:29:44;;;;;;;7.75;1.83;;;;;;;;;;5020620;28;20471;-59
2022/04/05 09:32:11;;;;;;;7.63;2.00;;;;;;;;;;5020638;28;20364;-60
2022/04/05 09:34:50;;;;;;;5.45;2.05;;;;;;;;;;5022427;28;20475;-59
2022/04/05 09:37:23;;;;;;;3.85;1.73;;;;;;;;;;5023486;28;20034;-59
2022/04/05 09:39:49;;;;;;;5.50;1.70;;;;;;;;;;5020853;28;20021;-60
2022/04/05 09:42:14;;;;;;;11.45;2.70;;;;;;;;;;5023462;28;20387;-59
2022/04/05 09:44:42;;;;;;;7.10;2.25;;;;;;;;;;5029035;28;20100;-60
2022/04/05 09:47:19;;;;;;;7.25;2.80;;;;;;;;;;5029622;28;20026;-59
2022/04/05 09:49:47;;;;;;;6.00;1.85;;;;;;;;;;5026009;28;20022;-60
2022/04/05 09:52:24;;;;;;;5.85;2.13;;;;;;;;;;5026200;28;20029;-60
2022/04/05 09:54:50;;;;;;;6.88;1.90;;;;;;;;;;5026031;28;20026;-59
2022/04/05 09:57:31;;;;;;;5.28;1.90;;;;;;;;;;5024405;28;20518;-60
2022/04/05 10:00:15;;;;;;;4.35;1.85;;;;;;;;;;5026201;28;20040;-61
2022/04/05 10:03:00;;;;;;;6.45;3.13;;;;;;;;;;5025932;28;20036;-62
2022/04/05 10:05:26;;;;;;;6.57;1.70;;;;;;;;;;5025870;28;20028;-63
2022/04/05 10:07:52;;;;;;;9.77;2.22;;;;;;;;;;5025691;28;20422;-63
2022/04/05 10:10:19;;;;;;;5.35;1.30;;;;;;;;;;5024024;28;20033;-62
2022/04/05 10:12:47;;;;;;;4.20;1.42;;;;;;;;;;5025525;28;20036;-61
2022/04/05 10:15:13;;;;;;;11.38;2.08;;;;;;;;;;5025154;28;20061;-60
2022/04/05 10:17:45;;;;;;;7.35;1.70;;;;;;;;;;5023622;28;20100;-61
2022/04/05 10:20:12;;;;;;;6.95;1.80;;;;;;;;;;5031312;28;20050;-62
2022/04/05 10:22:39;;;;;;;11.63;2.67;;;;;;;;;;5025829;28;20107;-62
2022/04/05 10:25:06;;;;;;;5.47;2.20;;;;;;;;;;5024710;28;20017;-61
2022/04/05 10:27:31;;;;;;;6.10;1.60;;;;;;;;;;5025089;28;20372;-61
2022/04/05 10:30:07;;;;;;;8.95;2.58;;;;;;;;;;5025449;28;20029;-63
2022/04/05 10:32:46;;;;;;;7.28;2.03;;;;;;;;;;5023931;28;20033;-60
2022/04/05 10:35:13;;;;;;;5.18;1.80;;;;;;;;;;5025465;28;20036;-61
2022/04/05 10:37:40;;;;;;;6.68;1.98;;;;;;;;;;5025225;28;20530;-61
2022/04/05 10:40:05;;;;;;;6.20;1.80;;;;;;;;;;5024372;28;20029;-62
2022/04/05 10:42:48;;;;;;;7.03;1.83;;;;;;;;;;5023604;28;20052;-61
2022/04/05 10:45:29;;;;;;;4.65;1.45;;;;;;;;;;5025263;28;20394;-60
2022/04/05 10:48:13;;;;;;;5.07;1.40;;;;;;;;;;5025902;28;20031;-62
2022/04/05 10:51:01;;;;;;;2.78;1.00;;;;;;;;;;5025171;28;20044;-61
2022/04/05 10:54:17;;;;;;;4.55;1.60;;;;;;;;;;5025533;28;20041;-60
2022/04/05 10:56:26;;;;;;;4.82;1.77;;;;;;;;;;5023963;28;20439;-61
2022/04/05 10:58:54;;;;;;;3.25;1.30;;;;;;;;;;5024599;28;20105;-59
2022/04/05 11:01:25;;;;;;;5.10;2.00;;;;;;;;;;5025052;28;20017;-60
2022/04/05 11:04:09;;;;;;;6.00;1.77;;;;;;;;;;5026355;28;20474;-60
2022/04/05 11:09:27;;;;;;;5.35;1.52;;;;;;;;;;5034308;28;20041;-60
2022/04/05 11:11:53;;;;;;;6.53;1.17;;;;;;;;;;5034192;28;20026;-60
2022/04/05 11:14:41;;;;;;;2.88;1.50;;;;;;;;;;5034240;28;20375;-61
2022/04/05 11:17:08;;;;;;;8.05;2.45;;;;;;;;;;5034017;28;20052;-60
2022/04/05 11:19:39;;;;;;;5.70;1.80;;;;;;;;;;5029356;28;20045;-60
2022/04/05 11:22:24;;;;;;;4.65;1.38;;;;;;;;;;5031339;28;20390;-60
2022/04/05 11:24:54;;;;;;;4.10;1.38;;;;;;;;;;5033446;28;20076;-60
2022/04/05 11:27:29;;;;;;;8.18;1.75;;;;;;;;;;5033460;28;20083;-60
2022/04/05 11:33:08;;;;;;;8.02;1.63;;;;;;;;;;5032043;28;20112;-60
2022/04/05 11:35:57;;;;;;;4.82;1.45;;;;;;;;;;5033892;28;20075;-60
2022/04/05 11:38:22;;;;;;;5.28;1.50;;;;;;;;;;5033491;28;20028;-62
2022/04/05 11:40:58;;;;;;;7.88;2.17;;;;;;;;;;5033427;28;20029;-62
2022/04/05 11:43:34;;;;;;;7.15;2.00;;;;;;;;;;5033489;28;20033;-60
2022/04/05 11:46:16;;;;;;;6.45;1.50;;;;;;;;;;5033022;28;20095;-60
2022/04/05 11:48:47;;;;;;;5.88;1.35;;;;;;;;;;5033289;28;20048;-60
2022/04/05 11:51:15;;;;;;;11.52;4.13;;;;;;;;;;5033339;28;20030;-63
2022/04/05 11:53:42;;;;;;;7.05;2.45;;;;;;;;;;5033571;28;20184;-62
2022/04/05 11:56:13;;;;;;;7.22;2.30;;;;;;;;;;5033133;28;20526;-60
2022/04/05 11:58:46;;;;;;;8.65;3.28;;;;;;;;;;5031868;28;20029;-60
2022/04/05 12:01:13;;;;;;;9.25;3.40;;;;;;;;;;5032816;28;20102;-59
2022/04/05 12:03:42;;;;;;;21.55;7.63;;;;;;;;;;5032971;28;20170;-60
2022/04/05 12:06:08;;;;;;;15.00;6.53;;;;;;;;;;5032669;28;20490;-61
2022/04/05 12:08:34;;;;;;;25.92;13.63;;;;;;;;;;5032845;28;20033;-60
2022/04/05 12:10:59;;;;;;;17.85;3.95;;;;;;;;;;5032673;28;20051;-60
2022/04/05 12:13:29;;;;;;;12.40;2.80;;;;;;;;;;5032885;28;20124;-60
2022/04/05 12:15:59;;;;;;;11.75;2.35;;;;;;;;;;5032590;28;20036;-60
2022/04/05 12:18:27;;;;;;;11.48;3.17;;;;;;;;;;5032402;28;20030;-60
2022/04/05 12:21:01;;;;;;;5.93;1.33;;;;;;;;;;5032524;28;20022;-60
2022/04/05 12:23:41;;;;;;;7.78;1.10;;;;;;;;;;5032550;28;20030;-62
2022/04/05 12:26:10;;;;;;;3.17;1.10;;;;;;;;;;5032785;28;20067;-60
2022/04/05 12:28:46;;;;;;;7.47;1.60;;;;;;;;;;5032862;28;20025;-60
2022/04/05 12:31:19;;;;;;;7.13;2.17;;;;;;;;;;5032267;28;20052;-60
2022/04/05 12:34:05;;;;;;;14.85;2.80;;;;;;;;;;5032396;28;20104;-59
2022/04/05 12:36:37;;;;;;;9.18;2.53;;;;;;;;;;5032069;28;20030;-61
2022/04/05 12:39:22;;;;;;;16.15;3.28;;;;;;;;;;5032163;28;20025;-62
2022/04/05 12:41:53;;;;;;;9.65;2.30;;;;;;;;;;5032297;28;20100;-61
2022/04/05 12:44:23;;;;;;;5.63;1.90;;;;;;;;;;5032188;28;20025;-61
2022/04/05 12:46:52;;;;;;;7.50;2.10;;;;;;;;;;5032269;28;20480;-62
2022/04/05 12:49:18;;;;;;;14.05;2.97;;;;;;;;;;5032178;28;20040;-61
2022/04/05 12:51:44;;;;;;;12.45;2.88;;;;;;;;;;5032588;28;20029;-61
2022/04/05 12:54:26;;;;;;;9.85;3.40;;;;;;;;;;5032303;28;20142;-61
2022/04/05 12:56:51;;;;;;;6.88;2.10;;;;;;;;;;5032038;28;20410;-62
2022/04/05 12:59:28;;;;;;;4.80;1.83;;;;;;;;;;5031880;28;20029;-61
2022/04/05 13:01:56;;;;;;;11.50;2.17;;;;;;;;;;5032092;28;20490;-62
2022/04/05 13:04:23;;;;;;;10.15;2.15;;;;;;;;;;5032067;28;20029;-62
2022/04/05 13:06:59;;;;;;;11.52;3.17;;;;;;;;;;5031881;28;20037;-62
2022/04/05 13:09:29;;;;;;;4.72;1.98;;;;;;;;;;5031972;28;20036;-62
2022/04/05 13:12:13;;;;;;;10.07;2.00;;;;;;;;;;5032163;28;20112;-62
2022/04/05 13:14:39;;;;;;;9.80;2.35;;;;;;;;;;5031585;28;20040;-62
2022/04/05 13:17:06;;;;;;;11.07;2.13;;;;;;;;;;5031998;28;20029;-63
2022/04/05 13:19:32;;;;;;;7.93;2.40;;;;;;;;;;5034561;28;20144;-61
2022/04/05 13:22:01;;;;;;;8.90;1.83;;;;;;;;;;5036279;28;20025;-62
2022/04/05 13:24:47;;;;;;;8.60;1.80;;;;;;;;;;5035981;28;20203;-61
2022/04/05 13:27:14;;;;;;;7.50;3.25;;;;;;;;;;5035609;28;20061;-62
2022/04/05 13:29:42;;;;;;;7.32;2.05;;;;;;;;;;5035888;28;20084;-62
2022/04/05 13:32:15;;;;;;;10.38;3.10;;;;;;;;;;5035846;28;20542;-61
2022/04/05 13:34:41;;;;;;;7.47;2.03;;;;;;;;;;5035687;28;20045;-63
2022/04/05 13:37:07;;;;;;;10.85;3.30;;;;;;;;;;5035627;28;20033;-62
2022/04/05 13:39:36;;;;;;;5.57;1.73;;;;;;;;;;5035733;28;20029;-61
2022/04/05 13:42:04;;;;;;;8.68;1.75;;;;;;;;;;5035391;28;20474;-61
2022/04/05 13:44:29;;;;;;;10.68;2.00;;;;;;;;;;5035387;28;20072;-61
2022/04/05 13:46:55;;;;;;;5.90;2.05;;;;;;;;;;5035467;28;20025;-60
2022/04/05 13:49:21;;;;;;;8.18;3.38;;;;;;;;;;5035591;28;20033;-61
2022/04/05 13:51:49;;;;;;;8.40;2.00;;;;;;;;;;5035592;28;20140;-61
2022/04/05 13:54:16;;;;;;;8.65;3.30;;;;;;;;;;5035407;28;20027;-61
2022/04/05 13:56:43;;;;;;;7.57;2.33;;;;;;;;;;5035190;28;20029;-62
2022/04/05 13:59:09;;;;;;;5.00;1.70;;;;;;;;;;5035005;28;20064;-61
2022/04/05 14:01:36;;;;;;;4.72;1.65;;;;;;;;;;5035390;28;20108;-61
2022/04/05 14:04:04;;;;;;;7.45;2.63;;;;;;;;;;5035336;28;20029;-61
2022/04/05 14:06:29;;;;;;;7.57;1.67;;;;;;;;;;5035133;28;20044;-61
2022/04/05 14:08:56;;;;;;;6.35;1.40;;;;;;;;;;5034901;28;20443;-61
2022/04/05 14:11:22;;;;;;;3.15;1.10;;;;;;;;;;5035422;28;20124;-61
2022/04/05 14:13:48;;;;;;;4.95;1.13;;;;;;;;;;5035058;28;20439;-61
2022/04/05 14:16:15;;;;;;;2.55;1.20;;;;;;;;;;5034924;28;20021;-61
2022/04/05 14:18:42;;;;;;;4.90;1.23;;;;;;;;;;5034567;28;20049;-61
2022/04/05 14:21:08;;;;;;;2.45;1.15;;;;;;;;;;5034739;28;20528;-61
2022/04/05 14:23:35;;;;;;;4.95;1.08;;;;;;;;;;5034725;28;20037;-61
2022/04/05 14:26:03;;;;;;;4.22;1.00;;;;;;;;;;5034298;28;20024;-61
2022/04/05 14:28:29;;;;;;;5.60;1.65;;;;;;;;;;5034583;28;20056;-61
2022/04/05 14:30:54;;;;;;;4.45;1.30;;;;;;;;;;5034436;28;20451;-61
2022/04/05 14:33:20;;;;;;;15.07;3.10;;;;;;;;;;5034813;28;20040;-62
2022/04/05 14:35:46;;;;;;;5.47;2.45;;;;;;;;;;5034417;28;20436;-60
2022/04/05 14:38:11;;;;;;;5.90;2.08;;;;;;;;;;5034417;28;20026;-60
2022/04/05 14:40:37;;;;;;;5.43;2.67;;;;;;;;;;5034342;28;20021;-60
2022/04/05 14:43:04;;;;;;;7.90;3.28;;;;;;;;;;5033948;28;20030;-62
2022/04/05 14:45:30;;;;;;;9.40;2.95;;;;;;;;;;5024605;28;20036;-61
2022/04/05 14:47:58;;;;;;;6.88;2.03;;;;;;;;;;5024018;28;20022;-60
2022/04/05 14:50:24;;;;;;;4.88;2.08;;;;;;;;;;5023310;28;20447;-61